KNSO2: Flint Creek

                                SHEF ID:       KNSO2     Flint Creek near Kansas, OK
STATION TYPE:
Regulating: Stage = 11.00, Flow = 7610

PRECIP PRECIP(A) STAGE RIV-FLOW VOLTAGE
in in ft cfs volt
Ccp-Rev Ccp-Rev Ccp-Rev Ccp-Rev Ccp-Rev
(America/Chicago)
04/24 00:00 0.00 ---- 6.49 133 12.10
04/24 01:00 0.00 ---- 6.48 129 12.10
04/24 02:00 0.00 ---- 6.48 129 12.10
04/24 03:00 0.87 ---- 6.52 145 12.00
04/24 04:00 0.92 ---- 6.70 239 12.00
04/24 05:00 0.11 ---- 6.71 245 12.00
04/24 06:00 0.02 ---- 6.75 271 12.00
04/24 07:00 0.00 ---- 6.91 398 12.00
04/24 08:00 0.00 ---- 7.33 828 12.00
04/24 09:00 0.00 ---- 7.75 1380 12.20
04/24 10:00 0.00 ---- 7.85 1529 12.40
04/24 11:00 0.00 ---- 7.81 1468 12.50
04/24 12:00 0.00 ---- 7.76 1394 12.40
04/24 13:00 0.00 ---- 7.69 1294 12.40
04/24 14:00 0.00 ---- 7.62 1197 12.40
04/24 15:00 0.00 ---- 7.56 1116 12.40
04/24 16:00 0.00 ---- 7.50 1039 12.40
04/24 17:00 0.00 ---- 7.44 962 12.30
04/24 18:00 0.00 ---- 7.39 900 12.40
04/24 19:00 0.00 ---- 7.35 852 12.30
04/24 20:00 0.00 ---- 7.31 805 12.20
04/24 21:00 0.00 ---- 7.28 770 12.10
04/24 22:00 0.00 ---- 7.25 737 12.10
04/24 23:00 0.00 ---- 7.22 704 12.10
Data processed at Sat 25Apr2026 04:35 GMT

NOTICE: If you are parsing this page

Please convert to using our Data API. Starting early 2026 we will be migrating to: https://water.usace.army.mil with modern pages rendered in JavaScript. When this migration completes you will no longer be able to scrape this page! CWMSDataAPI (CDA)

Timeseries IDs (TSIDs)

TSIDs used from left to right in the data table
KANS.Precip-Inc.Total.1Hour.1Hour.Ccp-Rev
KANS.Precip-Inc Alt.Total.1Hour.1Hour.Ccp-Rev
KANS.Stage.Inst.1Hour.0.Ccp-Rev
KANS.Flow.Inst.1Hour.0.Ccp-Rev
KANS.Volt-Battery.Inst.1Hour.0.Ccp-Rev

                            

All information presented herein is the property of the government of the United States of America and may be revised or deleted at any time without prior notice. Dissemination of this information without the expressed written consent of the Public Affairs Office, Tulsa District U.S. Army Corps of Engineers is strictly prohibited. These data are gathered electronically and, as presented, have NOT undergone any form of quality control. These data are NOT guaranteed to be valid or correct.